ADDS METAR Data INFO
IDs: Format: Raw Decoded Include TAF

Data at: 1841 UTC 17 Oct 2017

KMSP 171753Z 21006KT 10SM FEW250 18/08 A3001 RMK AO2 SLP161 T01830078 10183 20083 58004
KMSP 171653Z VRB03KT 10SM FEW250 16/08 A3002 RMK AO2 SLP166 T01610078
KMSP 171553Z 21004KT 10SM FEW250 13/07 A3003 RMK AO2 SLP170 T01330067
KMSP 171453Z 23003KT 10SM SCT250 12/06 A3002 RMK AO2 SLP167 T01170061 52003
KMSP 171353Z 20004KT 10SM SCT250 09/06 A3002 RMK AO2 SLP168 T00940061
KMSP 171253Z 00000KT 10SM SCT250 09/05 A3001 RMK AO2 SLP165 T00890050
KMSP 171153Z 24003KT 10SM FEW250 09/05 A3001 RMK AO2 SLP164 T00940050 10133 20089 53010
KMSP 171053Z 23003KT 10SM CLR 09/05 A3000 RMK AO2 SLP159 T00940050
KMSP 170953Z 21003KT 10SM CLR 10/05 A2998 RMK AO2 SLP155 T01000050
KMSP 170853Z 23003KT 10SM CLR 11/05 A2998 RMK AO2 SLP152 T01060050 51006
KMSP 170753Z 21003KT 10SM CLR 11/05 A2998 RMK AO2 SLP152 T01110050
KMSP 170653Z 23003KT 10SM CLR 12/05 A2997 RMK AO2 SLP151 T01220050
KMSP 170553Z 24007KT 10SM CLR 13/04 A2996 RMK AO2 SLP147 T01330044 10167 20133 401890039 51002
KMSP 170453Z 24008KT 10SM CLR 14/04 A2996 RMK AO2 SLP147 T01390044
KMSP 170353Z 24005KT 10SM CLR 14/04 A2997 RMK AO2 SLP149 T01440039
KMSP 170253Z 22009KT 10SM FEW300 16/03 A2996 RMK AO2 SLP147 T01560033 56013
KMSP 170153Z 22008KT 10SM SCT300 16/03 A2997 RMK AO2 SLP151 T01610028
KMSP 170053Z 18008KT 10SM FEW300 16/03 A2998 RMK AO2 SLP156 T01610033
KMSP 162353Z 18006KT 10SM SCT300 17/03 A3000 RMK AO2 SLP161 T01670033 10189 20144 56021
KMSP 162253Z 20007KT 10SM SCT300 18/03 A3001 RMK AO2 SLP163 T01830028
KMSP 162153Z 20008G16KT 10SM SCT300 19/02 A3003 RMK AO2 SLP172 T01890022
KMSP 162053Z 23010KT 10SM FEW300 19/02 A3006 RMK AO2 SLP182 T01890022 56038
KMSP 161953Z 21010KT 10SM FEW250 18/02 A3010 RMK AO2 SLP194 T01780017
KMSP 161853Z 21009G17KT 10SM FEW250 17/02 A3013 RMK AO2 SLP205 T01670017
KMSP 161753Z 22009KT 10SM CLR 14/02 A3018 RMK AO2 SLP222 T01440022 10144 20039 58020
KMSP 161653Z 23008KT 10SM CLR 12/03 A3021 RMK AO2 SLP234 T01220028
KMSP 161553Z 23008KT 10SM FEW250 10/03 A3023 RMK AO2 SLP241 T01000028
KMSP 161453Z 22005KT 10SM FEW250 08/03 A3024 RMK AO2 SLP244 T00780033 52004
KMSP 161353Z 23005KT 10SM FEW250 06/03 A3023 RMK AO2 SLP243 T00560028
KMSP 161253Z 23004KT 10SM CLR 04/03 A3023 RMK AO2 SLP243 T00390028
KMSP 161153Z 22004KT 10SM FEW210 04/03 A3022 RMK AO2 SLP241 T00440028 10072 20044 55001
KMSP 161053Z 21005KT 10SM CLR 04/03 A3022 RMK AO2 SLP240 T00440033
KMSP 160953Z 19004KT 10SM CLR 05/03 A3022 RMK AO2 SLP238 T00500033
KMSP 160853Z 00000KT 10SM CLR 06/04 A3023 RMK AO2 SLP240 T00560039 51006
KMSP 160753Z 21004KT 10SM BKN070 06/04 A3022 RMK AO2 SLP239 T00610044
KMSP 160653Z 21003KT 10SM CLR 06/04 A3022 RMK AO2 SLP237 T00610044